Skaelskor, Denmark
Current Conditions -  °F | °C
As of 1:50 PM on Thursday 23 Oct 2014 (Local Time) from EKRK Reporting Station
Overcast Overcast  
Wind Chill: 52°   Ceiling: 2100
Heat Index: 52°   Visibility: 6mi
Dew Point: 46°   Wind: 15mph
Humidity: 82%   Direction: 150°SSE
Pressure: 30.15"   Gusts: NA
Location:  55.25°N, 11.29°E
Report Text: EKRK 231150Z AUTO 15013KT 9999NDV FEW017/// OVC021///11/08 Q1021
Loading
Personal Weather Stations






























Interactive Weather Map
Tropical Storm Tracking
New forecast layout! Learn more

10-Day Weather Forecast

Advertisements
Track Severe Weather on mobile